createdAt,value
2022-08-16T00:00:04.116Z,59.87
2022-08-16T00:00:58.080Z,59.65
2022-08-16T00:01:59.894Z,59.50
2022-08-16T00:02:58.545Z,59.34
2022-08-16T00:03:59.966Z,59.65
2022-08-16T00:04:59.615Z,59.51
2022-08-16T00:05:58.012Z,59.38
2022-08-16T00:06:58.063Z,59.34
2022-08-16T00:07:59.144Z,59.34
2022-08-16T00:08:57.922Z,59.06
2022-08-16T00:09:59.021Z,58.95
2022-08-16T00:10:57.928Z,58.82
2022-08-16T00:11:58.768Z,58.71
2022-08-16T00:12:58.862Z,58.49
2022-08-16T00:13:59.081Z,58.27
2022-08-16T00:15:00.017Z,58.06
2022-08-16T00:15:57.939Z,58.08
2022-08-16T00:17:12.284Z,57.85
2022-08-16T00:17:58.888Z,57.61
2022-08-16T00:18:58.338Z,57.68
2022-08-16T00:19:57.957Z,57.84
2022-08-16T00:20:58.472Z,57.78
2022-08-16T00:22:03.089Z,58.12
2022-08-16T00:22:58.106Z,58.11
2022-08-16T00:23:58.449Z,58.09
2022-08-16T00:24:57.856Z,58.18
2022-08-16T00:26:34.857Z,58.04
2022-08-16T00:26:58.114Z,57.90
2022-08-16T00:27:58.118Z,57.98
2022-08-16T00:28:57.981Z,57.98
2022-08-16T00:30:08.512Z,57.66
2022-08-16T00:30:59.141Z,57.36
2022-08-16T00:32:01.679Z,56.87
2022-08-16T00:33:00.417Z,56.63
2022-08-16T00:33:57.919Z,56.44
2022-08-16T00:34:57.973Z,56.14
2022-08-16T00:35:57.989Z,56.02
2022-08-16T00:37:59.413Z,56.04
2022-08-16T00:38:57.898Z,56.03
2022-08-16T00:39:58.465Z,56.14
2022-08-16T00:40:58.166Z,56.03
2022-08-16T00:42:58.282Z,55.89
2022-08-16T00:43:59.091Z,56.04
2022-08-16T00:45:08.453Z,56.11
2022-08-16T00:46:34.059Z,56.02
2022-08-16T00:47:06.445Z,56.04
2022-08-16T00:47:57.945Z,56.10
2022-08-16T00:49:58.011Z,56.40
2022-08-16T00:50:58.000Z,56.31
2022-08-16T00:51:57.868Z,56.09
2022-08-16T00:52:58.224Z,55.68
2022-08-16T00:53:58.293Z,55.44
2022-08-16T00:54:58.269Z,55.25
2022-08-16T00:56:01.249Z,55.27
2022-08-16T00:57:00.357Z,55.16
2022-08-16T00:58:00.776Z,54.99
2022-08-16T00:59:01.255Z,54.99
2022-08-16T00:59:59.406Z,54.91
2022-08-16T01:00:58.890Z,54.67
2022-08-16T01:01:58.145Z,54.77
2022-08-16T01:02:59.821Z,54.84
2022-08-16T01:03:57.908Z,54.94
2022-08-16T01:05:10.608Z,55.13
2022-08-16T01:07:01.902Z,55.16
2022-08-16T01:07:59.655Z,55.15
2022-08-16T01:08:59.881Z,54.93
2022-08-16T01:09:57.936Z,54.90
2022-08-16T01:10:59.835Z,55.06
2022-08-16T01:11:57.877Z,54.89
2022-08-16T01:13:00.264Z,54.93
2022-08-16T01:14:05.619Z,55.12
2022-08-16T01:15:00.756Z,55.18
2022-08-16T01:16:03.000Z,54.96
2022-08-16T01:18:00.092Z,55.03
2022-08-16T01:19:02.679Z,55.10
2022-08-16T01:20:00.607Z,55.11
2022-08-16T01:21:09.041Z,55.09
2022-08-16T01:22:49.581Z,55.07
2022-08-16T01:23:08.691Z,55.03
2022-08-16T01:24:51.397Z,55.11
2022-08-16T01:25:04.512Z,55.13
2022-08-16T01:26:00.248Z,55.20
2022-08-16T01:27:06.336Z,55.09
2022-08-16T01:28:01.691Z,55.24
2022-08-16T01:29:01.778Z,55.45
2022-08-16T01:30:19.745Z,55.31
2022-08-16T01:30:59.748Z,54.75
2022-08-16T01:31:57.873Z,54.22
2022-08-16T01:33:14.385Z,54.02
2022-08-16T01:33:57.848Z,53.78
2022-08-16T01:34:58.336Z,53.67
2022-08-16T01:36:02.557Z,53.58
2022-08-16T01:37:03.696Z,53.31
2022-08-16T01:38:08.017Z,53.05
2022-08-16T01:38:57.816Z,52.73
2022-08-16T01:39:59.109Z,52.67
2022-08-16T01:41:03.414Z,52.65
2022-08-16T01:41:57.866Z,53.11
2022-08-16T01:42:58.444Z,53.46
2022-08-16T01:44:00.732Z,53.57
2022-08-16T01:44:57.829Z,53.73
2022-08-16T01:46:00.011Z,54.05
2022-08-16T01:46:58.192Z,53.93
2022-08-16T01:47:57.802Z,53.77
2022-08-16T01:49:03.473Z,53.91
2022-08-16T01:50:42.742Z,54.04
2022-08-16T01:52:01.765Z,53.88
2022-08-16T01:52:58.202Z,53.77
2022-08-16T01:53:58.203Z,53.79
2022-08-16T01:54:59.400Z,53.83
2022-08-16T01:55:57.944Z,54.18
2022-08-16T01:56:58.131Z,54.47
2022-08-16T01:59:00.085Z,55.04
2022-08-16T01:59:57.899Z,55.41
2022-08-16T02:01:59.987Z,55.29
2022-08-16T02:02:58.185Z,55.17
2022-08-16T02:04:11.241Z,55.15
2022-08-16T02:05:00.416Z,55.01
2022-08-16T02:06:57.797Z,55.12
2022-08-16T02:07:58.564Z,55.17
2022-08-16T02:08:57.897Z,55.23
2022-08-16T02:09:59.667Z,54.95
2022-08-16T02:10:58.164Z,54.62
2022-08-16T02:12:00.408Z,54.35
2022-08-16T02:12:59.930Z,53.93
2022-08-16T02:13:57.938Z,53.68
2022-08-16T02:14:59.507Z,53.54
2022-08-16T02:15:57.924Z,53.49
2022-08-16T02:16:59.377Z,53.27
2022-08-16T02:18:01.087Z,53.01
2022-08-16T02:18:57.859Z,52.88
2022-08-16T02:20:00.616Z,52.74
2022-08-16T02:20:57.913Z,52.77
2022-08-16T02:22:09.186Z,52.74
2022-08-16T02:22:58.662Z,52.59
2022-08-16T02:23:58.217Z,52.42
2022-08-16T02:24:57.825Z,52.50
2022-08-16T02:25:59.446Z,52.44
2022-08-16T02:26:58.092Z,52.25
2022-08-16T02:27:59.405Z,52.29
2022-08-16T02:28:57.917Z,52.49
2022-08-16T02:30:05.644Z,52.59
2022-08-16T02:31:00.406Z,52.61
2022-08-16T02:32:58.364Z,52.72
2022-08-16T02:33:58.266Z,52.54
2022-08-16T02:34:58.070Z,52.57
2022-08-16T02:35:59.979Z,52.66
2022-08-16T02:36:57.793Z,52.75
2022-08-16T02:38:01.773Z,52.60
2022-08-16T02:38:57.827Z,52.57
2022-08-16T02:39:57.860Z,52.58
2022-08-16T02:41:57.873Z,52.51
2022-08-16T02:42:57.935Z,52.41
2022-08-16T02:43:58.613Z,52.28
2022-08-16T02:44:57.892Z,52.27
2022-08-16T02:45:58.454Z,52.31
2022-08-16T02:46:57.873Z,52.47
2022-08-16T02:48:01.148Z,52.71
2022-08-16T02:49:00.350Z,52.98
2022-08-16T02:50:52.165Z,53.01
2022-08-16T02:51:05.912Z,53.01
2022-08-16T02:51:57.828Z,53.14
2022-08-16T02:52:57.919Z,53.27
2022-08-16T02:53:57.835Z,53.03
2022-08-16T02:54:58.033Z,52.89
2022-08-16T02:55:58.149Z,52.86
2022-08-16T02:56:57.870Z,52.62
2022-08-16T02:57:57.802Z,52.59
2022-08-16T02:58:58.040Z,52.62
2022-08-16T02:59:58.583Z,52.53
2022-08-16T03:00:57.933Z,52.50
2022-08-16T03:01:57.844Z,52.54
2022-08-16T03:02:58.205Z,52.56
2022-08-16T03:04:39.845Z,52.30
2022-08-16T03:04:58.397Z,52.21
2022-08-16T03:05:57.809Z,52.21
2022-08-16T03:06:58.107Z,52.07
2022-08-16T03:07:57.963Z,52.13
2022-08-16T03:08:58.151Z,52.13
2022-08-16T03:10:00.290Z,52.13
2022-08-16T03:10:59.073Z,52.18
2022-08-16T03:11:57.854Z,51.87
2022-08-16T03:12:58.730Z,51.94
2022-08-16T03:13:58.229Z,52.13
2022-08-16T03:14:57.784Z,52.18
2022-08-16T03:16:59.446Z,51.59
2022-08-16T03:17:58.224Z,51.26
2022-08-16T03:18:58.078Z,51.10
2022-08-16T03:19:59.792Z,50.93
2022-08-16T03:20:59.838Z,50.70
2022-08-16T03:22:57.906Z,50.30
2022-08-16T03:23:57.834Z,50.22
2022-08-16T03:25:00.806Z,50.08
2022-08-16T03:25:57.783Z,50.07
2022-08-16T03:27:00.349Z,50.72
2022-08-16T03:27:57.809Z,51.86
2022-08-16T03:28:57.805Z,52.62
2022-08-16T03:29:57.816Z,53.01
2022-08-16T03:30:57.928Z,53.16
2022-08-16T03:31:59.297Z,53.50
2022-08-16T03:32:58.050Z,53.83
2022-08-16T03:33:57.937Z,54.08
2022-08-16T03:34:57.769Z,54.42
2022-08-16T03:36:30.284Z,54.56
2022-08-16T03:36:58.913Z,54.62
2022-08-16T03:38:58.073Z,54.73
2022-08-16T03:40:03.117Z,54.89
2022-08-16T03:43:02.159Z,55.99
2022-08-16T03:43:57.948Z,56.17
2022-08-16T03:45:03.967Z,56.48
2022-08-16T03:45:59.179Z,56.68
2022-08-16T03:46:58.250Z,56.71
2022-08-16T03:47:58.243Z,56.96
2022-08-16T03:48:57.794Z,57.11
2022-08-16T03:50:59.525Z,57.13
2022-08-16T03:54:01.285Z,56.98
2022-08-16T03:54:59.572Z,56.70
2022-08-16T03:55:58.181Z,56.61
2022-08-16T03:56:58.599Z,56.33
2022-08-16T03:58:58.146Z,55.96
2022-08-16T03:59:57.916Z,56.16
2022-08-16T04:00:59.470Z,56.29
2022-08-16T04:01:58.904Z,56.30
2022-08-16T04:03:02.562Z,56.32
2022-08-16T04:03:57.919Z,56.53
2022-08-16T04:04:57.732Z,56.42
2022-08-16T04:05:58.120Z,55.99
2022-08-16T04:06:57.769Z,55.48
2022-08-16T04:07:57.770Z,55.10
2022-08-16T04:08:57.756Z,54.63
2022-08-16T04:10:58.179Z,54.28
2022-08-16T04:11:58.019Z,54.37
2022-08-16T04:13:04.533Z,54.34
2022-08-16T04:14:58.252Z,54.43
2022-08-16T04:15:59.489Z,54.67
2022-08-16T04:16:57.804Z,55.21
2022-08-16T04:19:02.569Z,56.32
2022-08-16T04:19:59.787Z,56.74
2022-08-16T04:21:00.116Z,57.00
2022-08-16T04:21:58.065Z,57.27
2022-08-16T04:22:58.415Z,57.50
2022-08-16T04:23:58.000Z,57.76
2022-08-16T04:24:59.481Z,57.93
2022-08-16T04:25:58.262Z,57.99
2022-08-16T04:26:57.720Z,58.12
2022-08-16T04:27:58.313Z,58.44
2022-08-16T04:29:16.831Z,58.53
2022-08-16T04:30:03.224Z,58.61
2022-08-16T04:30:57.920Z,58.91
2022-08-16T04:31:58.362Z,59.05
2022-08-16T04:32:57.816Z,58.98
2022-08-16T04:33:59.515Z,59.17
2022-08-16T04:34:57.773Z,59.38
2022-08-16T04:35:58.823Z,59.25
2022-08-16T04:37:01.904Z,59.18
2022-08-16T04:37:57.836Z,59.25
2022-08-16T04:38:57.837Z,59.35
2022-08-16T04:39:57.801Z,59.61
2022-08-16T04:40:58.241Z,59.54
2022-08-16T04:41:57.790Z,59.59
2022-08-16T04:43:58.643Z,59.86
2022-08-16T04:44:58.623Z,59.97
2022-08-16T04:46:00.893Z,59.89
2022-08-16T04:47:02.613Z,59.81
2022-08-16T04:47:58.045Z,59.91
2022-08-16T04:48:57.779Z,60.10
2022-08-16T04:49:57.745Z,60.29
2022-08-16T04:50:58.346Z,60.29
2022-08-16T04:51:58.236Z,60.12
2022-08-16T04:52:58.041Z,60.24
2022-08-16T04:53:58.055Z,60.39
2022-08-16T04:54:57.721Z,60.57
2022-08-16T04:55:57.737Z,60.76
2022-08-16T04:56:57.699Z,60.95
2022-08-16T04:57:58.700Z,61.17
2022-08-16T04:58:58.010Z,61.40
2022-08-16T04:59:58.034Z,61.68
2022-08-16T05:00:58.001Z,61.99
2022-08-16T05:01:59.446Z,62.11
2022-08-16T05:02:58.933Z,62.23
2022-08-16T05:04:00.248Z,62.40
2022-08-16T05:04:57.837Z,62.54
2022-08-16T05:06:05.294Z,62.75
2022-08-16T05:06:57.925Z,62.90
2022-08-16T05:08:00.046Z,63.11
2022-08-16T05:08:58.352Z,63.29
2022-08-16T05:09:57.738Z,63.48
2022-08-16T05:11:00.306Z,63.57
2022-08-16T05:11:57.873Z,63.74
2022-08-16T05:12:58.680Z,63.91
2022-08-16T05:14:06.813Z,64.03
2022-08-16T05:15:02.579Z,64.16
2022-08-16T05:15:57.700Z,64.33
2022-08-16T05:16:57.717Z,64.52
2022-08-16T05:17:58.927Z,64.54
2022-08-16T05:19:00.436Z,64.67
2022-08-16T05:19:58.481Z,64.80
2022-08-16T05:21:09.371Z,64.98
2022-08-16T05:21:57.687Z,65.11
2022-08-16T05:22:57.709Z,65.18
2022-08-16T05:24:00.313Z,65.21
2022-08-16T05:24:57.957Z,65.19
2022-08-16T05:25:59.822Z,65.21
2022-08-16T05:26:57.706Z,65.17
2022-08-16T05:27:59.412Z,65.17
2022-08-16T05:28:58.830Z,65.18
2022-08-16T05:30:01.987Z,65.28
2022-08-16T05:30:57.714Z,65.36
2022-08-16T05:31:57.721Z,65.41
2022-08-16T05:32:57.766Z,65.48
2022-08-16T05:33:58.890Z,65.56
2022-08-16T05:34:57.790Z,65.63
2022-08-16T05:35:58.091Z,65.75
2022-08-16T05:36:58.717Z,65.88
2022-08-16T05:37:57.991Z,66.00
2022-08-16T05:38:57.719Z,66.08
2022-08-16T05:39:59.325Z,66.20
2022-08-16T05:41:01.506Z,66.37
2022-08-16T05:41:57.819Z,66.47
2022-08-16T05:42:57.774Z,66.58
2022-08-16T05:44:05.346Z,66.65
2022-08-16T05:44:57.722Z,66.74
2022-08-16T05:46:00.003Z,66.85
2022-08-16T05:47:00.976Z,66.89
2022-08-16T05:47:59.531Z,67.08
2022-08-16T05:49:03.717Z,67.10
2022-08-16T05:49:57.694Z,67.27
2022-08-16T05:50:57.766Z,67.40
2022-08-16T05:51:59.972Z,67.47
2022-08-16T05:52:57.685Z,67.55
2022-08-16T05:53:57.700Z,67.63
2022-08-16T05:55:00.885Z,67.77
2022-08-16T05:55:57.762Z,67.82
2022-08-16T05:56:59.981Z,67.86
2022-08-16T05:57:57.725Z,67.82
2022-08-16T05:58:57.721Z,67.73
2022-08-16T05:59:59.764Z,67.70
2022-08-16T06:00:57.918Z,67.66
2022-08-16T06:01:57.919Z,67.64
2022-08-16T06:02:57.939Z,67.58
2022-08-16T06:03:57.682Z,67.60
2022-08-16T06:04:57.704Z,67.69
2022-08-16T06:06:00.759Z,67.71
2022-08-16T06:06:58.228Z,67.71
2022-08-16T06:07:59.011Z,67.77
2022-08-16T06:08:57.762Z,67.84
2022-08-16T06:09:59.638Z,67.85
2022-08-16T06:11:02.641Z,67.92
2022-08-16T06:11:57.730Z,68.03
2022-08-16T06:12:57.790Z,68.14
2022-08-16T06:13:57.999Z,68.25
2022-08-16T06:15:04.170Z,68.37
2022-08-16T06:15:57.844Z,68.58
2022-08-16T06:16:57.798Z,68.66
2022-08-16T06:17:59.127Z,68.76
2022-08-16T06:18:57.661Z,68.90
2022-08-16T06:19:57.981Z,68.96
2022-08-16T06:20:57.799Z,69.01
2022-08-16T06:21:57.731Z,69.11
2022-08-16T06:23:03.971Z,69.16
2022-08-16T06:23:57.856Z,69.21
2022-08-16T06:24:57.748Z,69.32
2022-08-16T06:25:57.687Z,69.41
2022-08-16T06:26:58.474Z,69.47
2022-08-16T06:27:58.363Z,69.60
2022-08-16T06:28:57.718Z,69.65
2022-08-16T06:29:57.802Z,69.71
2022-08-16T06:30:57.957Z,69.69
2022-08-16T06:31:57.700Z,69.77
2022-08-16T06:32:57.698Z,69.92
2022-08-16T06:33:57.800Z,70.04
2022-08-16T06:35:03.063Z,70.24
2022-08-16T06:35:59.761Z,70.83
2022-08-16T06:37:00.186Z,70.97
2022-08-16T06:37:57.926Z,71.03
2022-08-16T06:38:59.316Z,71.08
2022-08-16T06:41:58.450Z,71.15
2022-08-16T06:42:57.816Z,71.26
2022-08-16T06:43:57.714Z,71.30
2022-08-16T06:44:57.688Z,71.43
2022-08-16T06:45:57.653Z,71.50
2022-08-16T06:47:57.738Z,71.44
2022-08-16T06:48:57.707Z,71.46
2022-08-16T06:49:57.652Z,71.59
2022-08-16T06:50:58.394Z,71.75
2022-08-16T06:52:02.709Z,71.88
2022-08-16T06:53:01.037Z,71.91
2022-08-16T06:53:57.897Z,71.97
2022-08-16T06:54:57.671Z,72.00
2022-08-16T06:55:59.292Z,72.11
2022-08-16T06:56:57.646Z,72.14
2022-08-16T06:57:57.982Z,72.20
2022-08-16T06:58:58.355Z,72.17
2022-08-16T06:59:58.265Z,72.31
2022-08-16T07:00:59.587Z,72.36
2022-08-16T07:01:58.469Z,72.43
2022-08-16T07:02:58.692Z,72.54
2022-08-16T07:03:57.662Z,72.54
2022-08-16T07:04:57.699Z,72.64
2022-08-16T07:05:58.482Z,72.68
2022-08-16T07:06:58.154Z,72.74
2022-08-16T07:07:58.179Z,72.81
2022-08-16T07:08:58.263Z,72.82
2022-08-16T07:09:58.035Z,72.78
2022-08-16T07:10:58.936Z,72.70
2022-08-16T07:12:03.727Z,72.73
2022-08-16T07:13:04.076Z,72.77
2022-08-16T07:14:00.483Z,72.92
2022-08-16T07:15:00.759Z,72.96
2022-08-16T07:15:59.674Z,73.11
2022-08-16T07:16:59.103Z,73.01
2022-08-16T07:17:57.708Z,72.98
2022-08-16T07:19:01.956Z,73.07
2022-08-16T07:20:04.036Z,73.21
2022-08-16T07:21:01.830Z,73.19
2022-08-16T07:22:00.034Z,73.38
2022-08-16T07:22:59.089Z,73.33
2022-08-16T07:23:57.895Z,73.34
2022-08-16T07:24:57.795Z,73.63
2022-08-16T07:25:57.744Z,73.79
2022-08-16T07:27:57.729Z,73.93
2022-08-16T07:29:57.638Z,73.94
2022-08-16T07:33:58.202Z,73.99
2022-08-16T07:34:57.757Z,74.00
2022-08-16T07:36:58.916Z,74.03
2022-08-16T07:38:57.651Z,74.11
2022-08-16T07:41:01.249Z,74.09
2022-08-16T07:41:57.666Z,74.05
2022-08-16T07:42:57.674Z,74.15
2022-08-16T07:43:57.798Z,74.02
2022-08-16T07:44:58.216Z,74.00
2022-08-16T07:46:01.589Z,74.06
2022-08-16T07:46:57.820Z,74.05
2022-08-16T07:47:57.639Z,74.06
2022-08-16T07:49:02.425Z,74.17
2022-08-16T07:49:58.382Z,74.24
2022-08-16T07:51:00.214Z,74.39
2022-08-16T07:51:57.696Z,74.44
2022-08-16T07:52:58.249Z,74.53
2022-08-16T07:54:02.477Z,74.39
2022-08-16T07:54:58.144Z,74.25
2022-08-16T07:55:58.480Z,74.38
2022-08-16T07:56:57.626Z,74.58
2022-08-16T07:58:00.721Z,74.92
2022-08-16T07:58:57.935Z,75.17
2022-08-16T07:59:57.685Z,75.42
2022-08-16T08:00:58.285Z,75.44
2022-08-16T08:01:57.854Z,75.30
2022-08-16T08:02:57.718Z,75.15
2022-08-16T08:03:58.658Z,75.00
2022-08-16T08:04:57.849Z,74.83
2022-08-16T08:05:57.612Z,74.92
2022-08-16T08:06:57.819Z,75.04
2022-08-16T08:07:58.280Z,75.26
2022-08-16T08:08:59.304Z,75.45
2022-08-16T08:09:59.454Z,75.50
2022-08-16T08:10:57.768Z,75.53
2022-08-16T08:11:59.787Z,75.58
2022-08-16T08:12:58.425Z,75.50
2022-08-16T08:14:57.776Z,75.40
2022-08-16T08:15:57.771Z,75.42
2022-08-16T08:18:49.922Z,75.54
2022-08-16T08:19:57.634Z,75.35
2022-08-16T08:20:59.135Z,75.26
2022-08-16T08:22:00.686Z,75.28
2022-08-16T08:23:01.007Z,75.33
2022-08-16T08:23:57.850Z,75.34
2022-08-16T08:24:58.965Z,75.36
2022-08-16T08:25:57.644Z,75.39
2022-08-16T08:26:59.373Z,75.49
2022-08-16T08:27:59.497Z,75.44
2022-08-16T08:29:00.784Z,75.45
2022-08-16T08:30:48.786Z,75.44
2022-08-16T08:31:00.802Z,75.45
2022-08-16T08:31:57.606Z,75.51
2022-08-16T08:33:00.785Z,75.53
2022-08-16T08:33:58.655Z,75.63
2022-08-16T08:35:03.221Z,75.76
2022-08-16T08:36:00.813Z,75.87
2022-08-16T08:43:00.937Z,76.29
2022-08-16T08:43:58.448Z,76.31
2022-08-16T08:44:57.935Z,76.11
2022-08-16T08:45:57.755Z,75.88
2022-08-16T08:47:00.525Z,75.92
2022-08-16T08:47:58.650Z,75.98
2022-08-16T08:48:59.275Z,76.03
2022-08-16T08:49:59.100Z,76.06
2022-08-16T08:50:57.606Z,76.04
2022-08-16T08:51:58.997Z,76.01
2022-08-16T08:52:57.712Z,76.08
2022-08-16T08:53:58.530Z,76.24
2022-08-16T08:55:59.202Z,76.43
2022-08-16T08:56:58.012Z,76.39
2022-08-16T08:57:58.195Z,76.39
2022-08-16T08:58:58.908Z,76.47
2022-08-16T08:59:58.244Z,76.49
2022-08-16T09:02:58.919Z,76.60
2022-08-16T09:05:57.642Z,76.84
2022-08-16T09:06:58.584Z,76.88
2022-08-16T09:08:01.614Z,76.84
2022-08-16T09:08:57.712Z,76.76
2022-08-16T09:10:06.341Z,76.76
2022-08-16T09:11:02.082Z,76.78
2022-08-16T09:13:57.605Z,76.86
2022-08-16T09:15:57.691Z,77.02
2022-08-16T09:17:03.869Z,77.04
2022-08-16T09:17:57.585Z,77.07
2022-08-16T09:19:00.857Z,77.08
2022-08-16T09:19:59.423Z,77.11
2022-08-16T09:20:59.034Z,77.04
2022-08-16T09:21:57.870Z,77.08
2022-08-16T09:22:58.268Z,77.15
2022-08-16T09:23:57.748Z,77.22
2022-08-16T09:25:09.629Z,77.23
2022-08-16T09:25:57.767Z,77.14
2022-08-16T09:26:57.693Z,76.99
2022-08-16T09:30:00.102Z,76.87
2022-08-16T09:30:57.577Z,76.95
2022-08-16T09:31:58.709Z,77.05
2022-08-16T09:34:58.416Z,77.29
2022-08-16T09:35:57.614Z,77.41
2022-08-16T09:36:58.159Z,77.50
2022-08-16T09:38:00.958Z,77.54
2022-08-16T09:38:59.976Z,77.55
2022-08-16T09:39:59.712Z,77.60
2022-08-16T09:40:58.767Z,77.64
2022-08-16T09:42:00.082Z,77.62
2022-08-16T09:42:59.346Z,77.62
2022-08-16T09:44:00.883Z,77.59
2022-08-16T09:45:10.643Z,77.54
2022-08-16T09:45:57.644Z,77.57
2022-08-16T09:47:58.442Z,77.70
2022-08-16T09:48:58.459Z,77.75
2022-08-16T09:49:57.591Z,77.80
2022-08-16T09:50:57.632Z,77.83
2022-08-16T09:51:57.734Z,77.85
2022-08-16T09:52:57.585Z,77.84
2022-08-16T09:53:58.252Z,77.84
2022-08-16T09:54:57.516Z,77.89
2022-08-16T09:55:58.082Z,77.99
2022-08-16T09:56:57.586Z,78.09
2022-08-16T09:57:59.032Z,78.14
2022-08-16T09:59:03.909Z,78.16
2022-08-16T09:59:57.571Z,78.18
2022-08-16T10:00:57.976Z,78.21
2022-08-16T10:01:57.711Z,78.20
2022-08-16T10:02:58.587Z,78.20
2022-08-16T10:04:01.603Z,78.26
2022-08-16T10:04:58.967Z,78.28
2022-08-16T10:05:57.637Z,78.30
2022-08-16T10:07:57.554Z,78.26
2022-08-16T10:09:05.440Z,78.25
2022-08-16T10:09:57.762Z,78.22
2022-08-16T10:11:06.906Z,78.19
2022-08-16T10:12:11.470Z,78.17
2022-08-16T10:13:06.850Z,78.16
2022-08-16T10:13:57.612Z,78.17
2022-08-16T10:14:57.516Z,78.11
2022-08-16T10:16:00.183Z,78.10
2022-08-16T10:17:02.866Z,78.07
2022-08-16T10:18:00.620Z,78.02
2022-08-16T10:19:02.280Z,77.98
2022-08-16T10:19:57.964Z,77.97
2022-08-16T10:20:59.455Z,77.95
2022-08-16T10:21:57.985Z,77.92
2022-08-16T10:23:03.599Z,77.89
2022-08-16T10:23:57.735Z,77.85
2022-08-16T10:24:59.786Z,77.80
2022-08-16T10:27:17.874Z,77.75
2022-08-16T10:27:19.135Z,77.68
2022-08-16T10:28:26.123Z,77.65
2022-08-16T10:28:57.614Z,77.56
2022-08-16T10:30:00.129Z,77.50
2022-08-16T10:30:59.089Z,77.43
2022-08-16T10:31:57.553Z,77.39
2022-08-16T10:32:58.048Z,77.34
2022-08-16T10:33:57.533Z,77.30
2022-08-16T10:34:57.675Z,77.27
2022-08-16T10:36:58.501Z,77.22
2022-08-16T10:39:57.984Z,77.13
2022-08-16T10:48:00.513Z,77.10
2022-08-16T10:48:57.593Z,77.08
2022-08-16T10:49:59.580Z,77.06
2022-08-16T10:50:59.277Z,77.03
2022-08-16T10:52:01.465Z,77.00
2022-08-16T10:52:59.382Z,76.95
2022-08-16T10:53:58.715Z,76.91
2022-08-16T10:54:59.213Z,76.88
2022-08-16T10:56:01.534Z,76.85
2022-08-16T10:56:58.576Z,76.81
2022-08-16T10:59:32.532Z,76.75
2022-08-16T11:03:01.202Z,76.67
2022-08-16T11:05:06.243Z,76.66
2022-08-16T11:07:08.374Z,76.64
2022-08-16T11:09:25.235Z,76.63
2022-08-16T11:10:19.768Z,76.63
2022-08-16T11:13:59.429Z,76.58
2022-08-16T11:16:01.252Z,76.54
2022-08-16T11:17:10.605Z,76.51
2022-08-16T11:18:47.876Z,76.47
2022-08-16T11:19:05.212Z,76.44
2022-08-16T11:20:36.711Z,76.39
2022-08-16T11:20:59.086Z,76.33
2022-08-16T11:22:22.963Z,76.28
2022-08-16T11:22:59.107Z,76.25
2022-08-16T11:23:59.127Z,76.21
2022-08-16T11:25:12.494Z,76.17
2022-08-16T11:26:07.329Z,76.12
2022-08-16T11:27:23.044Z,76.10
2022-08-16T11:29:14.268Z,76.07
2022-08-16T11:31:57.515Z,76.02
2022-08-16T11:33:57.514Z,76.00
2022-08-16T11:36:27.337Z,75.98
2022-08-16T11:38:46.870Z,75.96
2022-08-16T11:39:00.263Z,75.94
2022-08-16T11:39:59.986Z,75.94
2022-08-16T11:42:58.065Z,75.93
2022-08-16T11:46:27.884Z,75.94
2022-08-16T11:48:58.359Z,75.94
2022-08-16T11:51:57.526Z,75.90
2022-08-16T11:53:57.580Z,75.83
2022-08-16T11:55:58.153Z,75.78
2022-08-16T11:57:57.650Z,75.70
2022-08-16T11:59:57.519Z,75.67
2022-08-16T12:01:59.819Z,75.77
2022-08-16T12:02:57.442Z,75.83
2022-08-16T12:03:57.554Z,75.91
2022-08-16T12:04:58.046Z,75.93
2022-08-16T12:05:57.722Z,75.97
2022-08-16T12:06:57.578Z,76.00
2022-08-16T12:07:58.373Z,76.07
2022-08-16T12:09:00.950Z,76.15
2022-08-16T12:09:57.457Z,76.22
2022-08-16T12:10:59.386Z,76.28
2022-08-16T12:12:03.095Z,76.34
2022-08-16T12:12:57.869Z,76.41
2022-08-16T12:13:57.480Z,76.46
2022-08-16T12:14:59.413Z,76.54
2022-08-16T12:15:57.496Z,76.64
2022-08-16T12:16:59.699Z,76.72
2022-08-16T12:17:57.527Z,76.83
2022-08-16T12:18:58.316Z,76.90
2022-08-16T12:25:59.638Z,77.38
2022-08-16T12:27:57.487Z,77.57
2022-08-16T12:28:57.447Z,77.66
2022-08-16T12:29:58.582Z,77.76
2022-08-16T12:30:57.450Z,77.87
2022-08-16T12:32:00.685Z,77.93
2022-08-16T12:32:59.277Z,77.99
2022-08-16T12:34:57.530Z,78.15
2022-08-16T12:35:57.446Z,78.22
2022-08-16T12:36:57.636Z,78.31
2022-08-16T12:38:57.552Z,78.46
2022-08-16T12:39:58.202Z,78.55
2022-08-16T12:40:58.506Z,78.63
2022-08-16T12:43:00.886Z,78.73
2022-08-16T12:44:00.965Z,78.80
2022-08-16T12:45:59.454Z,78.94
2022-08-16T12:48:58.555Z,79.14
2022-08-16T12:49:57.442Z,79.21
2022-08-16T12:50:58.086Z,79.27
2022-08-16T12:52:57.842Z,79.42
2022-08-16T12:53:58.312Z,79.48
2022-08-16T12:54:57.865Z,79.52
2022-08-16T12:55:57.465Z,79.57
2022-08-16T12:56:57.846Z,79.64
2022-08-16T12:58:00.476Z,79.71
2022-08-16T12:58:58.261Z,79.77
2022-08-16T12:59:57.450Z,79.85
2022-08-16T13:01:59.532Z,79.97
2022-08-16T13:02:58.209Z,80.05
2022-08-16T13:04:12.132Z,80.16
2022-08-16T13:04:57.407Z,80.20
2022-08-16T13:05:57.918Z,80.31
2022-08-16T13:06:59.966Z,80.33
2022-08-16T13:09:02.439Z,80.47
2022-08-16T13:09:58.531Z,80.54
2022-08-16T13:10:57.439Z,80.61
2022-08-16T13:12:04.569Z,80.68
2022-08-16T13:12:57.453Z,80.74
2022-08-16T13:13:58.485Z,80.80
2022-08-16T13:16:03.602Z,80.92
2022-08-16T13:16:57.384Z,80.95
2022-08-16T13:18:57.500Z,81.05
2022-08-16T13:20:08.718Z,81.10
2022-08-16T13:21:57.397Z,81.21
2022-08-16T13:23:03.921Z,81.25
2022-08-16T13:25:57.617Z,81.37
2022-08-16T13:26:57.510Z,81.42
2022-08-16T13:28:02.987Z,81.46
2022-08-16T13:31:00.148Z,81.55
2022-08-16T13:31:57.371Z,81.58
2022-08-16T13:33:58.703Z,81.64
2022-08-16T13:36:00.664Z,81.72
2022-08-16T13:39:57.625Z,81.90
2022-08-16T13:43:59.332Z,82.03
2022-08-16T13:46:04.226Z,82.11
2022-08-16T13:46:57.741Z,82.16
2022-08-16T13:48:58.011Z,82.22
2022-08-16T13:49:57.359Z,82.27
2022-08-16T13:51:59.186Z,82.33
2022-08-16T13:55:59.256Z,82.45
2022-08-16T13:56:57.397Z,82.48
2022-08-16T14:03:57.585Z,82.58
2022-08-16T14:05:57.340Z,82.65
2022-08-16T14:06:59.116Z,82.69
2022-08-16T14:07:57.338Z,82.72
2022-08-16T14:09:06.292Z,82.75
2022-08-16T14:09:57.481Z,82.76
2022-08-16T14:13:59.288Z,82.86
2022-08-16T14:14:58.321Z,82.89
2022-08-16T14:15:57.396Z,82.92
2022-08-16T14:18:57.685Z,82.98
2022-08-16T14:19:59.855Z,83.00
2022-08-16T14:22:14.069Z,83.04
2022-08-16T14:22:57.587Z,83.07
2022-08-16T14:23:57.757Z,83.11
2022-08-16T14:24:58.737Z,83.14
2022-08-16T14:25:57.815Z,83.19
2022-08-16T14:27:57.385Z,83.28
2022-08-16T14:29:59.544Z,83.36
2022-08-16T14:30:57.549Z,83.39
2022-08-16T14:31:59.172Z,83.41
2022-08-16T14:34:59.087Z,83.50
2022-08-16T14:44:57.433Z,83.85
2022-08-16T14:49:57.310Z,83.93
2022-08-16T14:50:57.901Z,83.90
2022-08-16T14:53:00.887Z,83.92
2022-08-16T14:55:57.684Z,83.95
2022-08-16T14:56:58.138Z,83.95
2022-08-16T14:57:58.139Z,83.99
2022-08-16T15:00:00.802Z,84.09
2022-08-16T15:00:58.454Z,84.11
2022-08-16T15:02:00.489Z,84.15
2022-08-16T15:03:03.079Z,84.24
2022-08-16T15:03:58.116Z,84.30
2022-08-16T15:04:58.933Z,84.37
2022-08-16T15:05:57.346Z,84.41
2022-08-16T15:06:58.611Z,84.46
2022-08-16T15:07:57.472Z,84.54
2022-08-16T15:10:01.013Z,84.66
2022-08-16T15:10:57.332Z,84.70
2022-08-16T15:11:57.281Z,84.72
2022-08-16T15:12:58.560Z,84.72
2022-08-16T15:13:57.769Z,84.75
2022-08-16T15:20:58.018Z,84.73
2022-08-16T15:21:57.845Z,84.75
2022-08-16T15:23:57.840Z,84.72
2022-08-16T15:26:02.558Z,84.75
2022-08-16T15:26:57.845Z,84.77
2022-08-16T15:27:58.143Z,84.79
2022-08-16T15:33:02.186Z,84.87
2022-08-16T15:35:03.530Z,84.87
2022-08-16T15:35:58.583Z,84.89
2022-08-16T15:36:57.304Z,84.89
2022-08-16T15:42:02.127Z,84.99
2022-08-16T15:44:58.636Z,85.01
2022-08-16T15:46:06.807Z,85.03
2022-08-16T15:48:57.573Z,85.08
2022-08-16T15:50:59.954Z,85.09
2022-08-16T15:51:57.288Z,85.13
2022-08-16T15:54:29.264Z,85.16
2022-08-16T15:55:59.254Z,85.16
2022-08-16T15:57:00.215Z,85.16
2022-08-16T15:58:57.301Z,85.16
2022-08-16T16:00:57.601Z,85.17
2022-08-16T16:01:58.358Z,85.17
2022-08-16T16:03:09.186Z,85.16
2022-08-16T16:03:57.623Z,85.15
2022-08-16T16:05:59.960Z,85.13
2022-08-16T16:08:11.705Z,85.12
2022-08-16T16:09:58.796Z,85.12
2022-08-16T16:11:01.408Z,85.12